createdAt,value
2022-12-15T00:00:00.820Z,-9.2
2022-12-15T00:03:01.030Z,-9.2
2022-12-15T00:06:00.755Z,-9.2
2022-12-15T00:09:00.735Z,-9.2
2022-12-15T00:12:00.732Z,-9.2
2022-12-15T00:15:00.769Z,-9.2
2022-12-15T00:18:00.778Z,-9.2
2022-12-15T00:21:00.727Z,-9.2
2022-12-15T00:24:00.760Z,-9.2
2022-12-15T00:27:00.728Z,-9.2
2022-12-15T00:30:00.766Z,-9.3
2022-12-15T00:33:00.722Z,-9.3
2022-12-15T00:36:00.828Z,-9.3
2022-12-15T00:39:04.292Z,-9.3
2022-12-15T00:42:00.739Z,-9.3
2022-12-15T00:45:00.714Z,-9.4
2022-12-15T00:48:00.762Z,-9.4
2022-12-15T00:51:00.744Z,-9.4
2022-12-15T00:54:00.761Z,-9.4
2022-12-15T00:57:00.742Z,-9.4
2022-12-15T01:00:00.791Z,-9.4
2022-12-15T01:03:01.082Z,-9.4
2022-12-15T01:06:00.767Z,-9.4
2022-12-15T01:09:00.745Z,-9.4
2022-12-15T01:12:00.749Z,-9.4
2022-12-15T01:15:00.781Z,-9.4
2022-12-15T01:18:00.768Z,-9.4
2022-12-15T01:21:00.731Z,-9.4
2022-12-15T01:24:00.793Z,-9.4
2022-12-15T01:27:00.738Z,-9.4
2022-12-15T01:30:00.786Z,-9.6
2022-12-15T01:33:00.762Z,-9.6
2022-12-15T01:36:00.746Z,-9.6
2022-12-15T01:39:00.821Z,-9.6
2022-12-15T01:42:00.796Z,-9.6
2022-12-15T01:45:00.764Z,-9.6
2022-12-15T01:48:00.779Z,-9.6
2022-12-15T01:51:00.829Z,-9.6
2022-12-15T01:54:00.751Z,-9.6
2022-12-15T01:57:00.767Z,-9.6
2022-12-15T02:00:00.755Z,-9.6
2022-12-15T02:03:01.029Z,-9.7
2022-12-15T02:06:00.834Z,-9.7
2022-12-15T02:09:00.739Z,-9.7
2022-12-15T02:12:00.777Z,-9.7
2022-12-15T02:15:00.813Z,-9.7
2022-12-15T02:18:00.754Z,-9.7
2022-12-15T02:21:00.756Z,-9.7
2022-12-15T02:24:00.734Z,-9.7
2022-12-15T02:27:00.758Z,-9.9
2022-12-15T02:30:00.748Z,-9.9
2022-12-15T02:33:00.720Z,-9.9
2022-12-15T02:36:00.765Z,-9.9
2022-12-15T02:39:00.736Z,-9.9
2022-12-15T02:42:00.740Z,-9.9
2022-12-15T02:45:00.743Z,-9.9
2022-12-15T02:48:00.779Z,-9.9
2022-12-15T02:51:00.702Z,-9.9
2022-12-15T02:54:00.784Z,-9.9
2022-12-15T02:57:00.923Z,-9.9
2022-12-15T03:00:00.775Z,-9.9
2022-12-15T03:03:01.172Z,-9.9
2022-12-15T03:06:00.740Z,-9.9
2022-12-15T03:09:00.735Z,-9.9
2022-12-15T03:12:00.715Z,-9.9
2022-12-15T03:15:00.869Z,-9.9
2022-12-15T03:18:00.729Z,-9.9
2022-12-15T03:21:00.971Z,-10
2022-12-15T03:24:00.803Z,-10
2022-12-15T03:27:00.756Z,-10
2022-12-15T03:30:00.812Z,-10
2022-12-15T03:33:00.738Z,-10
2022-12-15T03:36:00.748Z,-10
2022-12-15T03:39:00.750Z,-10
2022-12-15T03:42:00.722Z,-10
2022-12-15T03:45:00.729Z,-10
2022-12-15T03:48:00.758Z,-10
2022-12-15T03:51:00.706Z,-10
2022-12-15T03:54:00.786Z,-10
2022-12-15T03:57:00.725Z,-10
2022-12-15T04:00:00.749Z,-10
2022-12-15T04:03:00.949Z,-10
2022-12-15T04:06:00.736Z,-9.9
2022-12-15T04:09:00.714Z,-9.9
2022-12-15T04:12:00.719Z,-9.9
2022-12-15T04:15:00.766Z,-9.9
2022-12-15T04:18:00.730Z,-9.9
2022-12-15T04:21:00.742Z,-9.9
2022-12-15T04:24:00.723Z,-9.9
2022-12-15T04:27:00.791Z,-9.9
2022-12-15T04:30:00.772Z,-9.9
2022-12-15T04:33:00.778Z,-9.9
2022-12-15T04:36:00.758Z,-9.9
2022-12-15T04:39:00.729Z,-9.9
2022-12-15T04:42:00.972Z,-9.9
2022-12-15T04:45:00.731Z,-9.9
2022-12-15T04:48:00.751Z,-9.9
2022-12-15T04:51:00.720Z,-9.9
2022-12-15T04:54:00.878Z,-9.9
2022-12-15T04:57:00.746Z,-9.9
2022-12-15T05:00:00.874Z,-9.9
2022-12-15T05:03:00.753Z,-9.9
2022-12-15T05:06:00.720Z,-9.9
2022-12-15T05:09:00.880Z,-9.9
2022-12-15T05:12:00.783Z,-9.9
2022-12-15T05:15:00.783Z,-9.4
2022-12-15T05:18:00.733Z,-9.4
2022-12-15T05:21:00.714Z,-9.4
2022-12-15T05:24:00.720Z,-9.3
2022-12-15T05:27:00.893Z,-9.3
2022-12-15T05:30:00.767Z,-9.3
2022-12-15T05:33:00.794Z,-9.3
2022-12-15T05:36:00.736Z,-9.3
2022-12-15T05:39:00.737Z,-9.3
2022-12-15T05:42:00.939Z,-9.3
2022-12-15T05:45:00.736Z,-9.3
2022-12-15T05:48:00.725Z,-9.3
2022-12-15T05:51:00.755Z,-9.3
2022-12-15T05:54:00.749Z,-9.3
2022-12-15T05:57:00.726Z,-9.3
2022-12-15T06:00:00.782Z,-9.3
2022-12-15T06:03:00.872Z,-9.3
2022-12-15T06:06:00.792Z,-9.2
2022-12-15T06:09:00.717Z,-9.2
2022-12-15T06:12:00.728Z,-9.2
2022-12-15T06:15:00.730Z,-9.2
2022-12-15T06:18:00.746Z,-9.1
2022-12-15T06:21:00.787Z,-9.1
2022-12-15T06:24:00.795Z,-9.1
2022-12-15T06:27:00.824Z,-9.1
2022-12-15T06:30:00.754Z,-9.1
2022-12-15T06:33:00.755Z,-9.1
2022-12-15T06:36:00.740Z,-9.1
2022-12-15T06:39:00.817Z,-9.1
2022-12-15T06:42:00.739Z,-9.1
2022-12-15T06:45:00.802Z,-9.1
2022-12-15T06:48:01.986Z,-9.1
2022-12-15T06:51:00.770Z,-9.1
2022-12-15T06:54:00.763Z,-9.1
2022-12-15T06:57:00.745Z,-9.1
2022-12-15T07:00:00.843Z,-9.1
2022-12-15T07:03:01.476Z,-9.1
2022-12-15T07:06:00.759Z,-9.1
2022-12-15T07:09:00.783Z,-9.1
2022-12-15T07:12:00.805Z,-9.1
2022-12-15T07:15:00.744Z,-9.1
2022-12-15T07:18:00.754Z,-9.1
2022-12-15T07:21:00.749Z,-8.9
2022-12-15T07:24:02.259Z,-8.9
2022-12-15T07:27:00.759Z,-8.9
2022-12-15T07:30:01.437Z,-8.9
2022-12-15T07:33:01.372Z,-8.6
2022-12-15T07:36:00.778Z,-8.6
2022-12-15T07:39:00.772Z,-8.6
2022-12-15T07:42:00.756Z,-8.6
2022-12-15T07:45:00.911Z,-8.6
2022-12-15T07:48:00.795Z,-8.1
2022-12-15T07:51:11.290Z,-8.1
2022-12-15T07:54:00.796Z,-8.1
2022-12-15T07:57:00.749Z,-8.1
2022-12-15T08:00:00.880Z,-8.1
2022-12-15T08:03:00.983Z,-7.6
2022-12-15T08:06:04.571Z,-7.6
2022-12-15T08:09:00.828Z,-7.6
2022-12-15T08:12:00.779Z,-7.6
2022-12-15T08:15:00.801Z,-7.6
2022-12-15T08:18:00.829Z,-7.6
2022-12-15T08:21:00.744Z,-7.6
2022-12-15T08:24:00.896Z,-7.6
2022-12-15T08:27:00.823Z,-7.6
2022-12-15T08:30:00.833Z,-7.6
2022-12-15T08:33:00.792Z,-7.6
2022-12-15T08:36:00.724Z,-7.6
2022-12-15T08:39:00.749Z,-7.2
2022-12-15T08:42:00.796Z,-7.2
2022-12-15T08:45:00.779Z,-7.2
2022-12-15T08:48:00.811Z,-7.2
2022-12-15T08:51:00.749Z,-7.2
2022-12-15T08:54:00.751Z,-7.2
2022-12-15T08:57:00.821Z,-6.8
2022-12-15T09:00:00.879Z,-6.8
2022-12-15T09:03:00.729Z,-6.8
2022-12-15T09:06:00.804Z,-6.8
2022-12-15T09:09:00.749Z,-6.8
2022-12-15T09:12:00.823Z,-6.2
2022-12-15T09:15:00.769Z,-6.2
2022-12-15T09:18:00.816Z,-6.2
2022-12-15T09:21:00.803Z,-5.7
2022-12-15T09:24:01.185Z,-5.7
2022-12-15T09:27:00.833Z,-5.7
2022-12-15T09:30:00.849Z,-5.7
2022-12-15T09:33:00.745Z,-5.2
2022-12-15T09:36:00.872Z,-5.2
2022-12-15T09:39:00.767Z,-5.2
2022-12-15T09:42:00.850Z,-5.2
2022-12-15T09:45:01.518Z,-5.2
2022-12-15T09:48:00.833Z,-4.7
2022-12-15T09:51:00.757Z,-4.7
2022-12-15T09:54:01.671Z,-4.7
2022-12-15T09:57:00.886Z,-4.4
2022-12-15T10:00:01.005Z,-4.4
2022-12-15T10:03:01.103Z,-4.2
2022-12-15T10:06:19.128Z,-4.2
2022-12-15T10:09:00.768Z,-4.2
2022-12-15T10:12:00.845Z,-4.2
2022-12-15T10:15:00.752Z,-4.2
2022-12-15T10:18:00.843Z,-4.2
2022-12-15T10:21:00.786Z,-3.7
2022-12-15T10:24:00.913Z,-3.7
2022-12-15T10:27:00.807Z,-3.7
2022-12-15T10:30:01.153Z,-3.7
2022-12-15T10:33:00.813Z,-3.7
2022-12-15T10:36:00.941Z,-3.7
2022-12-15T10:39:00.865Z,-3.2
2022-12-15T10:42:00.860Z,-3.2
2022-12-15T10:45:00.904Z,-3.2
2022-12-15T10:48:00.763Z,-3
2022-12-15T10:51:00.850Z,-3
2022-12-15T10:54:00.729Z,-3
2022-12-15T10:57:00.825Z,-3
2022-12-15T11:00:00.933Z,-2.6
2022-12-15T11:03:02.212Z,-2.6
2022-12-15T11:06:00.750Z,-2.6
2022-12-15T11:09:00.813Z,-2.6
2022-12-15T11:12:00.839Z,-2.6
2022-12-15T11:15:00.841Z,-2.6
2022-12-15T11:18:00.824Z,-2.6
2022-12-15T11:21:00.863Z,-2.6
2022-12-15T11:24:00.782Z,-2.6
2022-12-15T11:27:00.753Z,-2.6
2022-12-15T11:30:00.975Z,-2.1
2022-12-15T11:33:00.853Z,-2.1
2022-12-15T11:36:00.925Z,-2.1
2022-12-15T11:39:01.012Z,-2.1
2022-12-15T11:42:00.856Z,-2.1
2022-12-15T11:45:00.826Z,-2.1
2022-12-15T11:48:00.848Z,-1.9
2022-12-15T11:51:00.788Z,-1.9
2022-12-15T11:54:00.851Z,-1.9
2022-12-15T11:57:00.847Z,-1.9
2022-12-15T12:00:00.886Z,-1.9
2022-12-15T12:03:00.934Z,-1.9
2022-12-15T12:06:00.854Z,-1.6
2022-12-15T12:09:00.828Z,-1.6
2022-12-15T12:12:00.812Z,-1.6
2022-12-15T12:15:00.822Z,-1.6
2022-12-15T12:18:00.805Z,-1.6
2022-12-15T12:21:00.855Z,-1.6
2022-12-15T12:24:00.821Z,-1.6
2022-12-15T12:27:00.860Z,-1.6
2022-12-15T12:30:00.887Z,-1.6
2022-12-15T12:33:00.911Z,-1.6
2022-12-15T12:36:00.888Z,-1.6
2022-12-15T12:39:00.935Z,-1.6
2022-12-15T12:42:00.886Z,-1.1
2022-12-15T12:45:00.862Z,-1.1
2022-12-15T12:48:01.083Z,-1
2022-12-15T12:51:00.860Z,-1
2022-12-15T12:54:00.825Z,-1
2022-12-15T12:57:00.837Z,-1
2022-12-15T13:00:00.863Z,-1
2022-12-15T13:03:00.870Z,-1
2022-12-15T13:06:00.817Z,-1
2022-12-15T13:09:00.819Z,-1
2022-12-15T13:12:15.216Z,-1
2022-12-15T13:15:00.799Z,-1
2022-12-15T13:18:00.871Z,-1
2022-12-15T13:21:00.765Z,-1
2022-12-15T13:24:00.837Z,-1
2022-12-15T13:27:00.806Z,-1
2022-12-15T13:30:00.851Z,-1
2022-12-15T13:33:00.831Z,-1
2022-12-15T13:36:00.882Z,-1
2022-12-15T13:39:00.830Z,-1
2022-12-15T13:42:34.457Z,-0.7
2022-12-15T13:45:00.811Z,-0.7
2022-12-15T13:48:00.848Z,-0.7
2022-12-15T13:51:00.812Z,-0.7
2022-12-15T13:54:00.903Z,-0.7
2022-12-15T13:57:00.790Z,-0.7
2022-12-15T14:00:00.846Z,-0.7
2022-12-15T14:03:00.972Z,-0.7
2022-12-15T14:06:00.775Z,-0.7
2022-12-15T14:09:00.823Z,-0.7
2022-12-15T14:12:00.841Z,-0.7
2022-12-15T14:15:00.849Z,-0.7
2022-12-15T14:18:00.785Z,-0.8
2022-12-15T14:21:00.867Z,-0.8
2022-12-15T14:27:00.801Z,-0.8
2022-12-15T14:30:01.197Z,-0.8
2022-12-15T14:33:00.820Z,-0.8
2022-12-15T14:36:00.860Z,-0.8
2022-12-15T14:39:00.807Z,-1
2022-12-15T14:42:00.846Z,-1
2022-12-15T14:45:00.829Z,-1
2022-12-15T14:48:41.684Z,-1
2022-12-15T14:51:00.796Z,-1
2022-12-15T14:54:00.913Z,-1
2022-12-15T14:57:00.782Z,-1
2022-12-15T15:00:00.870Z,-1.3
2022-12-15T15:03:00.925Z,-1.3
2022-12-15T15:06:00.939Z,-1.3
2022-12-15T15:09:00.758Z,-1.3
2022-12-15T15:12:00.780Z,-1.3
2022-12-15T15:15:00.787Z,-1.3
2022-12-15T15:18:00.729Z,-1.3
2022-12-15T15:21:00.757Z,-1.3
2022-12-15T15:24:00.783Z,-1.3
2022-12-15T15:27:00.995Z,-1.3
2022-12-15T15:30:00.749Z,-1.3
2022-12-15T15:33:00.805Z,-1.3
2022-12-15T15:36:00.792Z,-1.8
2022-12-15T15:39:00.742Z,-1.8
2022-12-15T15:42:00.817Z,-1.8
2022-12-15T15:45:00.900Z,-1.8
2022-12-15T15:48:00.762Z,-1.8
2022-12-15T15:51:00.722Z,-1.8
2022-12-15T15:54:00.737Z,-1.8
2022-12-15T15:57:00.756Z,-1.8
2022-12-15T16:00:00.837Z,-1.8
2022-12-15T16:03:01.154Z,-1.8
2022-12-15T16:06:00.745Z,-1.8
2022-12-15T16:09:00.766Z,-1.8
2022-12-15T16:12:00.778Z,-1.8
2022-12-15T16:15:00.723Z,-1.8
2022-12-15T16:18:00.759Z,-2.3
2022-12-15T16:21:00.702Z,-2.3
2022-12-15T16:24:00.782Z,-2.3
2022-12-15T16:27:00.720Z,-2.3
2022-12-15T16:30:00.767Z,-2.4
2022-12-15T16:33:00.768Z,-2.4
2022-12-15T16:36:00.733Z,-2.4
2022-12-15T16:39:00.790Z,-2.5
2022-12-15T16:42:00.778Z,-2.5
2022-12-15T16:45:00.719Z,-2.5
2022-12-15T16:48:00.970Z,-2.5
2022-12-15T16:51:00.726Z,-2.7
2022-12-15T16:54:00.759Z,-2.7
2022-12-15T16:57:00.745Z,-2.7
2022-12-15T17:00:00.767Z,-2.7
2022-12-15T17:03:01.227Z,-2.7
2022-12-15T17:06:00.793Z,-2.7
2022-12-15T17:09:00.727Z,-2.7
2022-12-15T17:12:00.924Z,-2.7
2022-12-15T17:15:00.726Z,-3.1
2022-12-15T17:18:00.770Z,-3.1
2022-12-15T17:21:00.741Z,-3.1
2022-12-15T17:24:00.837Z,-3.1
2022-12-15T17:27:00.751Z,-3.1
2022-12-15T17:30:00.852Z,-3.4
2022-12-15T17:33:00.754Z,-3.4
2022-12-15T17:36:00.713Z,-3.4
2022-12-15T17:39:00.778Z,-3.4
2022-12-15T17:42:02.994Z,-3.4
2022-12-15T17:45:01.092Z,-3.4
2022-12-15T17:48:00.729Z,-3.4
2022-12-15T17:51:00.758Z,-3.4
2022-12-15T17:54:00.746Z,-3.4
2022-12-15T17:57:00.760Z,-3.6
2022-12-15T18:00:00.876Z,-3.6
2022-12-15T18:03:01.226Z,-3.6
2022-12-15T18:06:00.766Z,-3.6
2022-12-15T18:09:00.736Z,-3.6
2022-12-15T18:12:00.829Z,-3.6
2022-12-15T18:15:00.730Z,-3.6
2022-12-15T18:18:00.772Z,-3.6
2022-12-15T18:21:00.746Z,-3.6
2022-12-15T18:24:00.766Z,-3.6
2022-12-15T18:27:00.774Z,-3.6
2022-12-15T18:30:00.948Z,-4.1
2022-12-15T18:33:00.784Z,-4.1
2022-12-15T18:36:00.749Z,-4.1
2022-12-15T18:39:00.768Z,-4.1
2022-12-15T18:42:00.747Z,-4.1
2022-12-15T18:45:00.871Z,-4.1
2022-12-15T18:48:00.813Z,-4.3
2022-12-15T18:51:00.715Z,-4.4
2022-12-15T18:54:00.736Z,-4.4
2022-12-15T18:57:00.689Z,-4.4
2022-12-15T19:00:00.951Z,-4.4
2022-12-15T19:03:00.980Z,-4.4
2022-12-15T19:06:00.754Z,-4.4
2022-12-15T19:09:00.683Z,-4.4
2022-12-15T19:12:00.740Z,-4.4
2022-12-15T19:15:00.753Z,-4.4
2022-12-15T19:18:00.793Z,-4.4
2022-12-15T19:21:00.781Z,-4.4
2022-12-15T19:24:00.747Z,-4.4
2022-12-15T19:27:00.789Z,-4.4
2022-12-15T19:30:00.787Z,-4.9
2022-12-15T19:33:00.812Z,-4.9
2022-12-15T19:36:00.735Z,-4.9
2022-12-15T19:39:00.724Z,-4.9
2022-12-15T19:42:00.839Z,-4.9
2022-12-15T19:45:00.781Z,-4.9
2022-12-15T19:48:00.783Z,-4.9
2022-12-15T19:51:00.744Z,-4.9
2022-12-15T19:54:00.751Z,-4.9
2022-12-15T19:57:00.737Z,-4.9
2022-12-15T20:00:00.830Z,-4.9
2022-12-15T20:03:00.938Z,-4.9
2022-12-15T20:06:00.779Z,-4.9
2022-12-15T20:09:00.749Z,-4.9
2022-12-15T20:12:00.733Z,-4.9
2022-12-15T20:15:00.774Z,-4.9
2022-12-15T20:18:00.748Z,-5.4
2022-12-15T20:21:00.730Z,-5.4
2022-12-15T20:24:00.860Z,-5.4
2022-12-15T20:27:00.777Z,-5.4
2022-12-15T20:30:00.783Z,-5.4
2022-12-15T20:33:00.770Z,-5.4
2022-12-15T20:36:00.784Z,-5.4
2022-12-15T20:39:00.748Z,-5.4
2022-12-15T20:42:00.777Z,-5.5
2022-12-15T20:45:00.730Z,-5.5
2022-12-15T20:48:00.786Z,-5.5
2022-12-15T20:51:08.981Z,-5.5
2022-12-15T20:54:00.759Z,-5.5
2022-12-15T20:57:00.796Z,-5.5
2022-12-15T21:00:00.837Z,-5.5
2022-12-15T21:03:01.103Z,-5.5
2022-12-15T21:06:00.772Z,-5.5
2022-12-15T21:09:00.748Z,-5.5
2022-12-15T21:12:08.929Z,-5.5
2022-12-15T21:15:00.809Z,-5.5
2022-12-15T21:19:11.273Z,-5.9
2022-12-15T21:21:00.746Z,-5.9
2022-12-15T21:24:00.773Z,-5.9
2022-12-15T21:27:00.721Z,-5.9
2022-12-15T21:30:00.886Z,-5.9
2022-12-15T21:33:00.732Z,-5.9
2022-12-15T21:36:00.838Z,-5.9
2022-12-15T21:39:00.710Z,-6
2022-12-15T21:42:00.764Z,-6
2022-12-15T21:45:01.077Z,-6
2022-12-15T21:48:00.806Z,-6
2022-12-15T21:51:01.003Z,-6
2022-12-15T21:54:00.762Z,-6
2022-12-15T21:57:00.745Z,-6
2022-12-15T22:00:00.774Z,-6
2022-12-15T22:03:00.858Z,-6
2022-12-15T22:06:00.767Z,-6
2022-12-15T22:09:00.727Z,-6
2022-12-15T22:12:00.753Z,-6.3
2022-12-15T22:15:00.730Z,-6.3
2022-12-15T22:18:00.857Z,-6.3
2022-12-15T22:21:00.718Z,-6.3
2022-12-15T22:24:00.766Z,-6.3
2022-12-15T22:27:00.759Z,-6.3
2022-12-15T22:30:00.726Z,-6.3
2022-12-15T22:33:00.741Z,-6.4
2022-12-15T22:36:00.764Z,-6.4
2022-12-15T22:39:07.616Z,-6.4
2022-12-15T22:42:00.787Z,-6.4
2022-12-15T22:45:00.750Z,-6.4
2022-12-15T22:48:00.720Z,-6.4
2022-12-15T22:51:00.743Z,-6.4
2022-12-15T22:54:00.763Z,-6.4
2022-12-15T22:57:00.739Z,-6.4
2022-12-15T23:00:01.330Z,-6.4
2022-12-15T23:03:00.766Z,-6.7
2022-12-15T23:06:00.746Z,-6.7
2022-12-15T23:09:00.860Z,-6.7
2022-12-15T23:12:00.767Z,-6.7
2022-12-15T23:15:00.751Z,-6.7
2022-12-15T23:18:00.776Z,-6.7
2022-12-15T23:21:00.788Z,-6.7
2022-12-15T23:24:00.733Z,-6.7
2022-12-15T23:27:00.801Z,-6.7
2022-12-15T23:30:00.745Z,-6.7
2022-12-15T23:33:00.738Z,-6.7
2022-12-15T23:36:00.738Z,-6.7
2022-12-15T23:39:00.804Z,-6.9
2022-12-15T23:42:00.791Z,-6.9
2022-12-15T23:45:00.913Z,-6.9
2022-12-15T23:48:00.719Z,-6.9
2022-12-15T23:51:00.742Z,-6.9
2022-12-15T23:54:00.772Z,-7
2022-12-15T23:57:00.729Z,-7
